createdAt,value
2022-09-16T00:00:31.362Z,47.38
2022-09-16T00:05:23.687Z,47.36
2022-09-16T00:10:16.374Z,47.42
2022-09-16T00:15:08.760Z,47.4
2022-09-16T00:20:01.527Z,47.42
2022-09-16T00:24:54.097Z,47.46
2022-09-16T00:29:46.915Z,47.47
2022-09-16T00:34:39.376Z,47.41
2022-09-16T00:39:31.953Z,47.4
2022-09-16T00:44:24.448Z,47.36
2022-09-16T00:49:17.224Z,47.36
2022-09-16T00:54:09.950Z,47.28
2022-09-16T00:59:02.401Z,47.24
2022-09-16T01:03:54.863Z,47.22
2022-09-16T01:08:47.660Z,47.15
2022-09-16T01:13:40.230Z,47.18
2022-09-16T01:18:32.958Z,47.18
2022-09-16T01:23:25.519Z,47.17
2022-09-16T01:28:18.245Z,47.14
2022-09-16T01:33:10.703Z,47.15
2022-09-16T01:38:03.324Z,47.1
2022-09-16T01:42:56.053Z,47.08
2022-09-16T01:47:48.768Z,47.06
2022-09-16T01:52:41.422Z,47.09
2022-09-16T01:57:34.108Z,47.05
2022-09-16T02:02:26.924Z,47.09
2022-09-16T02:07:19.298Z,47.16
2022-09-16T02:12:11.916Z,47.19
2022-09-16T02:17:04.515Z,47.21
2022-09-16T02:21:57.016Z,47.26
2022-09-16T02:26:49.455Z,47.27
2022-09-16T02:31:42.162Z,47.2
2022-09-16T02:36:34.754Z,47.19
2022-09-16T02:41:27.623Z,47.13
2022-09-16T02:46:20.299Z,47.15
2022-09-16T02:51:12.549Z,47.12
2022-09-16T02:56:05.174Z,47.13
2022-09-16T03:00:57.823Z,47.15
2022-09-16T03:05:50.182Z,47.24
2022-09-16T03:10:42.849Z,47.17
2022-09-16T03:15:35.524Z,47.11
2022-09-16T03:20:28.140Z,47.15
2022-09-16T03:25:20.681Z,47.18
2022-09-16T03:30:13.393Z,47.14
2022-09-16T03:35:06.042Z,47.2
2022-09-16T03:39:58.722Z,47.13
2022-09-16T03:44:51.330Z,47.07
2022-09-16T03:49:43.932Z,47.13
2022-09-16T03:54:36.496Z,47.13
2022-09-16T03:59:29.019Z,47.16
2022-09-16T04:04:21.549Z,47.15
2022-09-16T04:09:14.322Z,47.14
2022-09-16T04:14:06.942Z,47.09
2022-09-16T04:18:59.507Z,47.07
2022-09-16T04:23:51.908Z,47.05
2022-09-16T04:28:44.636Z,47.03
2022-09-16T04:33:37.109Z,47.13
2022-09-16T04:38:29.570Z,47.08
2022-09-16T04:43:22.176Z,47.17
2022-09-16T04:48:14.767Z,47.13
2022-09-16T04:53:07.644Z,47.04
2022-09-16T04:58:00.168Z,47.06
2022-09-16T05:02:52.716Z,46.96
2022-09-16T05:07:45.241Z,47.19
2022-09-16T05:12:37.895Z,47.49
2022-09-16T05:17:49.655Z,47.62
2022-09-16T05:22:22.434Z,48.46
2022-09-16T05:27:15.284Z,48.7
2022-09-16T05:32:07.966Z,47.38
2022-09-16T05:37:00.441Z,47.61
2022-09-16T05:41:53.224Z,47.18
2022-09-16T05:46:45.882Z,48.67
2022-09-16T05:51:38.767Z,46.94
2022-09-16T05:56:31.296Z,46.83
2022-09-16T06:01:24.138Z,46.65
2022-09-16T06:06:16.627Z,46.5
2022-09-16T06:11:09.201Z,47.1
2022-09-16T06:16:01.673Z,46.71
2022-09-16T06:20:54.360Z,46.35
2022-09-16T06:25:41.270Z,46.15
2022-09-16T06:30:35.377Z,46.08
2022-09-16T06:35:28.907Z,45.83
2022-09-16T06:40:21.457Z,45.81
2022-09-16T06:45:13.981Z,45.89
2022-09-16T06:50:06.892Z,45.06
2022-09-16T06:54:59.335Z,46.09
2022-09-16T06:59:52.083Z,44.73
2022-09-16T07:04:44.703Z,44.48
2022-09-16T07:09:37.686Z,44.62
2022-09-16T07:14:30.035Z,44.73
2022-09-16T07:19:22.843Z,44.73
2022-09-16T12:32:53.454Z,46.81
2022-09-16T12:37:34.654Z,44.62
2022-09-16T12:42:25.929Z,44.85
2022-09-16T12:47:18.449Z,45.43
2022-09-16T12:52:11.345Z,44.75
2022-09-16T12:57:03.864Z,44.63
2022-09-16T13:01:59.733Z,44.56
2022-09-16T13:06:49.020Z,44.6
2022-09-16T13:16:34.764Z,43.95
2022-09-16T13:21:27.178Z,42.31
2022-09-16T13:26:19.967Z,43.54
2022-09-16T13:31:12.755Z,42.89
2022-09-16T13:36:05.282Z,43.27
2022-09-16T13:40:57.906Z,43.77
2022-09-16T13:45:50.753Z,43.68
2022-09-16T13:50:43.477Z,43.37
2022-09-16T13:55:36.021Z,43.51
2022-09-16T14:00:31.085Z,43.52
2022-09-16T14:05:21.478Z,43.64
2022-09-16T14:10:14.065Z,43.69
2022-09-16T14:15:06.443Z,43.7
2022-09-16T14:19:59.271Z,43.7
2022-09-16T14:24:56.320Z,43.79
2022-09-16T14:29:44.405Z,44
2022-09-16T14:34:32.202Z,42.62
2022-09-16T14:39:24.652Z,43.12
2022-09-16T14:44:18.595Z,43.57
2022-09-16T14:49:11.471Z,44.02
2022-09-16T14:54:19.380Z,44.19
2022-09-16T14:58:56.638Z,44.38
2022-09-16T15:03:49.257Z,44.41
2022-09-16T15:08:46.267Z,44.46
2022-09-16T15:13:34.480Z,44.32
2022-09-16T15:18:27.962Z,44.64
2022-09-16T15:23:20.810Z,44.74
2022-09-16T15:28:13.588Z,44.85
2022-09-16T15:33:06.217Z,44.91
2022-09-16T15:37:59.050Z,45.06
2022-09-16T15:42:51.544Z,45.03
2022-09-16T15:47:44.236Z,45.38
2022-09-16T15:52:36.887Z,45.57
2022-09-16T15:57:29.687Z,45.58
2022-09-16T16:02:22.125Z,44.83
2022-09-16T16:07:15.042Z,44.7
2022-09-16T16:12:07.381Z,44.83
2022-09-16T16:17:12.574Z,45.11
2022-09-16T16:21:52.766Z,45.17
2022-09-16T16:26:45.744Z,45.27
2022-09-16T16:31:38.625Z,47.43
2022-09-16T16:36:31.193Z,45.68
2022-09-16T16:41:23.664Z,46.15
2022-09-16T16:46:16.533Z,45.94
2022-09-16T16:51:08.913Z,45.9
2022-09-16T16:56:01.683Z,46.62
2022-09-16T17:00:54.627Z,46.63
2022-09-16T17:05:47.790Z,45.73
2022-09-16T17:10:40.481Z,46.75
2022-09-16T17:15:33.443Z,45.63
2022-09-16T17:20:26.191Z,45.32
2022-09-16T17:25:18.942Z,45.32
2022-09-16T17:30:11.310Z,45.55
2022-09-16T17:35:04.092Z,45.75
2022-09-16T17:39:56.810Z,45.8
2022-09-16T17:44:49.259Z,45.46
2022-09-16T17:49:41.846Z,45.68
2022-09-16T17:54:34.482Z,46.43
2022-09-16T17:59:26.958Z,46.09
2022-09-16T18:04:19.949Z,45.69
2022-09-16T18:09:12.385Z,45.36
2022-09-16T18:14:04.914Z,45.19
2022-09-16T18:18:57.155Z,45.17
2022-09-16T18:23:49.973Z,45.23
2022-09-16T18:29:05.604Z,45.07
2022-09-16T18:33:34.803Z,45.23
2022-09-16T18:38:27.329Z,45.21
2022-09-16T18:43:20.257Z,45.24
2022-09-16T18:48:12.847Z,45.26
2022-09-16T18:53:05.345Z,45.39
2022-09-16T18:57:57.966Z,45.41
2022-09-16T19:02:50.824Z,45.48
2022-09-16T19:07:43.520Z,45.57
2022-09-16T19:12:39.198Z,45.69
2022-09-16T19:17:28.692Z,45.84
2022-09-16T19:22:21.456Z,45.96
2022-09-16T19:27:13.971Z,46.06
2022-09-16T19:32:06.766Z,46.15
2022-09-16T19:36:59.393Z,46.27
2022-09-16T19:41:52.173Z,46.41
2022-09-16T19:46:44.839Z,46.39
2022-09-16T19:51:37.380Z,46.57
2022-09-16T19:56:30.088Z,46.65
2022-09-16T20:01:23.187Z,46.71
2022-09-16T20:06:15.676Z,46.81
2022-09-16T20:11:08.807Z,47.04
2022-09-16T20:16:01.688Z,47.28
2022-09-16T20:20:54.550Z,47.16
2022-09-16T20:25:47.301Z,47.93
2022-09-16T20:30:40.187Z,47.72
2022-09-16T20:35:32.614Z,47.79
2022-09-16T20:40:25.430Z,48.01
2022-09-16T20:45:17.808Z,48.08
2022-09-16T20:50:10.393Z,48.33
2022-09-16T20:55:02.615Z,48.26
2022-09-16T20:59:54.957Z,48.32
2022-09-16T21:04:47.525Z,48.32
2022-09-16T21:09:39.995Z,48.23
2022-09-16T21:14:32.813Z,48.19
2022-09-16T21:19:25.617Z,48.25
2022-09-16T21:24:18.089Z,48.23
2022-09-16T21:29:11.057Z,48.21
2022-09-16T21:34:03.471Z,48.29
2022-09-16T21:38:56.349Z,48.29
2022-09-16T21:43:48.411Z,48.34
2022-09-16T21:48:41.213Z,48.43
2022-09-16T21:53:34.221Z,48.31
2022-09-16T21:58:26.342Z,48.31
2022-09-16T22:03:18.888Z,48.23
2022-09-16T22:08:11.500Z,48.22
2022-09-16T22:13:04.136Z,48.28
2022-09-16T22:17:57.034Z,48.24
2022-09-16T22:22:49.630Z,48.2
2022-09-16T22:27:42.279Z,48.11
2022-09-16T22:32:37.768Z,48.18
2022-09-16T22:37:27.625Z,48.19
2022-09-16T22:42:20.360Z,48.14
2022-09-16T22:47:12.838Z,48.18
2022-09-16T22:52:05.750Z,48.17
2022-09-16T22:56:58.384Z,48.19
2022-09-16T23:01:50.868Z,48.15
2022-09-16T23:06:43.318Z,48.27
2022-09-16T23:11:36.003Z,48.23
2022-09-16T23:16:28.603Z,48.31
2022-09-16T23:21:21.093Z,48.32
2022-09-16T23:26:13.542Z,48.27
2022-09-16T23:31:06.111Z,47.96
2022-09-16T23:35:59.032Z,48.06
2022-09-16T23:40:51.448Z,48.08
2022-09-16T23:45:44.119Z,48.02
2022-09-16T23:50:36.657Z,48.07
2022-09-16T23:55:29.475Z,48.05
